createdAt,value
2018-03-24T00:01:21.103Z,16.20
2018-03-24T00:03:48.701Z,15.70
2018-03-24T00:06:16.400Z,16.57
2018-03-24T00:08:43.995Z,16.63
2018-03-24T00:11:11.614Z,16.40
2018-03-24T00:13:39.210Z,16.40
2018-03-24T00:16:07.216Z,17.87
2018-03-24T00:18:34.809Z,16.07
2018-03-24T00:21:02.424Z,15.03
2018-03-24T00:23:30.024Z,15.20
2018-03-24T00:25:57.632Z,16.50
2018-03-24T00:28:25.230Z,18.00
2018-03-24T00:30:52.880Z,18.00
2018-03-24T00:33:20.474Z,17.43
2018-03-24T00:35:48.776Z,17.40
2018-03-24T00:38:16.418Z,16.70
2018-03-24T00:40:44.067Z,15.27
2018-03-24T00:43:11.677Z,17.90
2018-03-24T00:45:39.508Z,18.77
2018-03-24T00:48:07.125Z,18.27
2018-03-24T00:50:34.725Z,18.20
2018-03-24T00:53:02.428Z,19.03
2018-03-24T00:55:30.022Z,18.70
2018-03-24T00:57:57.675Z,19.40
2018-03-24T01:00:25.283Z,17.27
2018-03-24T01:02:52.880Z,18.43
2018-03-24T01:05:20.489Z,18.43
2018-03-24T01:07:48.080Z,15.63
2018-03-24T01:10:15.714Z,18.40
2018-03-24T01:12:43.308Z,18.90
2018-03-24T01:15:11.127Z,17.73
2018-03-24T01:17:38.723Z,19.13
2018-03-24T01:20:06.319Z,17.40
2018-03-24T01:22:33.948Z,17.23
2018-03-24T01:25:01.549Z,16.67
2018-03-24T01:27:29.174Z,17.30
2018-03-24T01:29:56.772Z,18.20
2018-03-24T01:32:24.387Z,18.33
2018-03-24T01:34:51.985Z,16.90
2018-03-24T01:37:19.610Z,14.47
2018-03-24T01:39:47.203Z,16.33
2018-03-24T01:42:14.840Z,17.97
2018-03-24T01:44:42.436Z,17.20
2018-03-24T01:47:10.044Z,17.43
2018-03-24T01:49:37.677Z,16.10
2018-03-24T01:52:05.270Z,18.17
2018-03-24T01:54:32.884Z,18.90
2018-03-24T01:57:00.480Z,17.07
2018-03-24T01:59:28.132Z,18.77
2018-03-24T02:01:55.723Z,18.67
2018-03-24T02:04:23.364Z,17.90
2018-03-24T02:06:50.961Z,19.10
2018-03-24T02:09:18.580Z,16.87
2018-03-24T02:11:46.183Z,18.23
2018-03-24T02:14:13.792Z,19.03
2018-03-24T02:16:41.383Z,17.10
2018-03-24T02:19:09.005Z,17.00
2018-03-24T02:21:36.594Z,19.17
2018-03-24T02:24:04.456Z,15.50
2018-03-24T02:26:32.048Z,19.60
2018-03-24T02:28:59.649Z,15.03
2018-03-24T02:31:27.281Z,16.20
2018-03-24T02:33:54.874Z,16.93
2018-03-24T02:36:22.497Z,19.30
2018-03-24T02:38:50.188Z,18.48
2018-03-24T02:41:17.804Z,18.07
2018-03-24T02:43:45.456Z,17.20
2018-03-24T02:46:13.168Z,18.40
2018-03-24T02:48:40.778Z,17.80
2018-03-24T02:51:08.398Z,17.33
2018-03-24T02:53:36.025Z,19.10
2018-03-24T02:56:03.658Z,18.47
2018-03-24T02:58:31.272Z,17.63
2018-03-24T03:00:58.877Z,18.77
2018-03-24T03:03:26.484Z,17.90
2018-03-24T03:05:54.309Z,17.73
2018-03-24T03:08:21.912Z,17.87
2018-03-24T03:10:49.506Z,17.53
2018-03-24T03:13:17.179Z,16.60
2018-03-24T03:15:44.826Z,16.50
2018-03-24T03:18:12.514Z,16.25
2018-03-24T03:20:40.190Z,16.15
2018-03-24T03:23:07.965Z,15.87
2018-03-24T03:25:35.596Z,15.10
2018-03-24T03:28:03.353Z,15.60
2018-03-24T03:33:43.762Z,16.20
2018-03-24T03:36:11.389Z,17.33
2018-03-24T03:38:38.988Z,16.03
2018-03-24T03:41:06.610Z,16.40
2018-03-24T03:43:34.204Z,16.30
2018-03-24T03:46:02.539Z,17.10
2018-03-24T03:48:30.128Z,15.40
2018-03-24T03:50:57.829Z,18.20
2018-03-24T03:53:25.496Z,16.98
2018-03-24T03:55:53.120Z,15.37
2018-03-24T03:58:20.719Z,17.40
2018-03-24T04:00:48.375Z,17.30
2018-03-24T04:03:15.965Z,15.37
2018-03-24T04:05:43.642Z,16.55
2018-03-24T04:08:11.283Z,19.50
2018-03-24T04:10:38.887Z,16.20
2018-03-24T04:13:06.506Z,18.40
2018-03-24T04:15:34.104Z,17.57
2018-03-24T04:18:01.727Z,16.33
2018-03-24T04:20:29.402Z,15.52
2018-03-24T04:22:56.995Z,17.23
2018-03-24T04:25:24.692Z,15.23
2018-03-24T04:27:52.384Z,16.20
2018-03-24T04:30:19.995Z,15.33
2018-03-24T04:32:47.586Z,16.90
2018-03-24T04:35:15.200Z,18.13
2018-03-24T04:37:42.801Z,14.20
2018-03-24T04:40:10.414Z,15.90
2018-03-24T04:42:38.023Z,16.70
2018-03-24T04:45:05.636Z,16.13
2018-03-24T04:47:33.232Z,15.67
2018-03-24T04:50:00.946Z,16.42
2018-03-24T04:52:28.643Z,16.08
2018-03-24T04:54:56.327Z,15.85
2018-03-24T04:57:24.019Z,14.10
2018-03-24T04:59:51.734Z,16.55
2018-03-24T05:02:19.432Z,16.27
2018-03-24T05:04:47.108Z,15.32
2018-03-24T05:07:14.812Z,17.42
2018-03-24T05:09:42.497Z,17.40
2018-03-24T05:12:10.548Z,16.15
2018-03-24T05:14:38.323Z,15.43
2018-03-24T05:17:05.994Z,17.45
2018-03-24T05:19:33.692Z,16.95
2018-03-24T05:22:01.368Z,15.00
2018-03-24T05:24:29.063Z,15.70
2018-03-24T05:26:56.748Z,15.10
2018-03-24T05:29:24.646Z,14.82
2018-03-24T05:31:52.323Z,15.55
2018-03-24T05:34:19.991Z,15.63
2018-03-24T05:36:47.680Z,17.60
2018-03-24T05:39:15.355Z,15.15
2018-03-24T05:41:43.045Z,15.57
2018-03-24T05:44:10.718Z,16.40
2018-03-24T05:46:38.535Z,17.37
2018-03-24T05:49:06.214Z,15.75
2018-03-24T05:51:33.884Z,15.07
2018-03-24T05:54:01.575Z,14.63
2018-03-24T05:56:29.244Z,16.58
2018-03-24T05:58:57.162Z,15.55
2018-03-24T06:01:24.835Z,17.08
2018-03-24T06:03:53.508Z,17.30
2018-03-24T06:06:21.612Z,17.05
2018-03-24T06:08:49.307Z,16.95
2018-03-24T06:11:17.080Z,15.50
2018-03-24T06:13:44.778Z,15.35
2018-03-24T06:16:12.949Z,15.82
2018-03-24T06:18:40.620Z,13.55
2018-03-24T06:21:08.295Z,14.15
2018-03-24T06:23:35.992Z,15.05
2018-03-24T06:26:03.659Z,15.75
2018-03-24T06:28:31.378Z,15.38
2018-03-24T06:30:59.908Z,15.48
2018-03-24T06:33:27.621Z,15.35
2018-03-24T06:39:02.559Z,14.00
2018-03-24T06:41:30.246Z,14.63
2018-03-24T06:43:57.968Z,12.98
2018-03-24T06:46:25.652Z,14.18
2018-03-24T06:48:53.324Z,15.10
2018-03-24T06:51:21.082Z,14.23
2018-03-24T06:53:48.850Z,15.35
2018-03-24T06:56:16.540Z,15.35
2018-03-24T06:58:44.212Z,14.00
2018-03-24T07:01:12.235Z,13.38
2018-03-24T07:03:39.912Z,13.57
2018-03-24T07:06:07.595Z,14.65
2018-03-24T07:08:35.288Z,13.68
2018-03-24T07:11:02.956Z,15.02
2018-03-24T07:13:30.582Z,14.90
2018-03-24T07:15:58.280Z,15.23
2018-03-24T07:18:25.911Z,15.40
2018-03-24T07:20:53.509Z,15.83
2018-03-24T07:23:21.317Z,15.18
2018-03-24T07:25:49.080Z,17.10
2018-03-24T07:28:16.681Z,14.07
2018-03-24T07:30:44.286Z,16.10
2018-03-24T07:33:11.881Z,15.23
2018-03-24T07:35:39.608Z,14.93
2018-03-24T07:38:07.204Z,17.00
2018-03-24T07:40:34.798Z,16.17
2018-03-24T07:43:02.403Z,15.40
2018-03-24T07:45:30.002Z,16.40
2018-03-24T07:47:57.628Z,14.43
2018-03-24T07:50:25.233Z,14.30
2018-03-24T07:52:53.041Z,16.40
2018-03-24T07:55:20.643Z,14.40
2018-03-24T07:57:48.242Z,15.30
2018-03-24T08:00:15.939Z,15.93
2018-03-24T08:02:43.566Z,15.30
2018-03-24T08:05:11.204Z,16.53
2018-03-24T08:07:38.801Z,17.20
2018-03-24T08:10:06.428Z,14.60
2018-03-24T08:12:34.044Z,15.70
2018-03-24T08:15:01.648Z,16.70
2018-03-24T08:17:29.274Z,16.10
2018-03-24T08:19:56.878Z,15.40
2018-03-24T08:22:24.491Z,14.47
2018-03-24T08:24:52.102Z,16.80
2018-03-24T08:27:20.020Z,15.33
2018-03-24T08:29:47.625Z,16.33
2018-03-24T08:32:15.244Z,15.37
2018-03-24T08:34:42.899Z,17.13
2018-03-24T08:37:10.492Z,15.67
2018-03-24T08:39:38.112Z,14.87
2018-03-24T08:42:05.708Z,14.33
2018-03-24T08:44:33.748Z,15.10
2018-03-24T08:47:01.341Z,14.20
2018-03-24T08:49:28.930Z,14.10
2018-03-24T08:51:56.565Z,14.53
2018-03-24T08:54:24.152Z,15.17
2018-03-24T08:56:51.783Z,14.37
2018-03-24T08:59:19.443Z,13.60
2018-03-24T09:01:47.383Z,14.90
2018-03-24T09:04:14.982Z,13.17
2018-03-24T09:06:42.573Z,12.53
2018-03-24T09:09:10.188Z,12.97
2018-03-24T09:11:37.789Z,12.10
2018-03-24T09:14:05.437Z,11.83
2018-03-24T09:16:33.027Z,13.10
2018-03-24T09:19:00.621Z,13.37
2018-03-24T09:21:28.233Z,11.80
2018-03-24T09:23:55.838Z,11.80
2018-03-24T09:26:23.479Z,11.10
2018-03-24T09:28:51.081Z,10.10
2018-03-24T09:31:18.682Z,10.37
2018-03-24T09:33:46.299Z,10.83
2018-03-24T09:36:13.908Z,11.33
2018-03-24T09:38:41.535Z,11.67
2018-03-24T09:41:09.140Z,10.93
2018-03-24T09:43:36.869Z,11.30
2018-03-24T09:46:04.461Z,10.00
2018-03-24T09:48:32.062Z,8.23
2018-03-24T09:50:59.673Z,8.37
2018-03-24T09:53:27.305Z,8.23
2018-03-24T09:55:54.925Z,10.50
2018-03-24T09:58:22.515Z,8.00
2018-03-24T10:00:50.135Z,9.00
2018-03-24T10:03:17.722Z,7.80
2018-03-24T10:05:45.312Z,8.67
2018-03-24T10:08:12.923Z,7.00
2018-03-24T10:10:40.509Z,6.90
2018-03-24T10:13:08.123Z,8.23
2018-03-24T10:15:35.712Z,8.00
2018-03-24T10:18:03.496Z,6.70
2018-03-24T10:20:42.880Z,7.77
2018-03-24T10:23:24.948Z,7.13
2018-03-24T10:25:52.561Z,8.10
2018-03-24T10:28:20.157Z,7.60
2018-03-24T10:30:47.773Z,7.67
2018-03-24T10:33:15.367Z,8.53
2018-03-24T10:35:42.996Z,9.30
2018-03-24T10:38:10.588Z,9.50
2018-03-24T10:40:38.452Z,9.07
2018-03-24T10:43:11.612Z,8.00
2018-03-24T10:45:39.243Z,9.90
2018-03-24T10:48:06.843Z,10.77
2018-03-24T10:50:34.438Z,10.10
2018-03-24T10:53:02.059Z,8.50
2018-03-24T10:55:29.643Z,9.80
2018-03-24T10:57:57.280Z,10.20
2018-03-24T11:00:30.521Z,9.73
2018-03-24T11:02:58.136Z,10.00
2018-03-24T11:05:25.740Z,10.30
2018-03-24T11:07:53.365Z,8.80
2018-03-24T11:10:20.976Z,9.60
2018-03-24T11:12:48.568Z,8.93
2018-03-24T11:15:16.187Z,9.63
2018-03-24T11:17:43.781Z,8.37
2018-03-24T11:20:11.402Z,8.60
2018-03-24T11:22:38.991Z,8.33
2018-03-24T11:25:06.623Z,9.47
2018-03-24T11:27:34.221Z,8.70
2018-03-24T11:30:01.817Z,8.47
2018-03-24T11:32:29.432Z,8.33
2018-03-24T11:34:57.058Z,8.63
2018-03-24T11:37:24.728Z,8.53
2018-03-24T11:39:52.331Z,8.50
2018-03-24T11:42:20.352Z,8.27
2018-03-24T11:44:47.948Z,9.17
2018-03-24T11:47:15.540Z,8.83
2018-03-24T11:49:43.185Z,8.57
2018-03-24T11:52:10.781Z,8.00
2018-03-24T11:54:45.232Z,9.23
2018-03-24T11:57:12.920Z,9.10
2018-03-24T11:59:40.752Z,8.50
2018-03-24T12:02:08.352Z,9.50
2018-03-24T12:04:35.955Z,8.60
2018-03-24T12:07:03.578Z,8.93
2018-03-24T12:09:31.182Z,7.83
2018-03-24T12:11:58.792Z,7.83
2018-03-24T12:14:26.417Z,8.50
2018-03-24T12:16:54.072Z,7.90
2018-03-24T12:19:21.673Z,8.53
2018-03-24T12:21:49.280Z,7.53
2018-03-24T12:24:16.895Z,7.30
2018-03-24T12:26:44.495Z,7.40
2018-03-24T12:29:12.130Z,8.63
2018-03-24T12:31:39.715Z,7.00
2018-03-24T12:34:07.332Z,7.00
2018-03-24T12:36:34.931Z,7.67
2018-03-24T12:39:02.560Z,7.63
2018-03-24T12:41:30.189Z,8.57
2018-03-24T12:43:57.788Z,7.37
2018-03-24T12:46:25.405Z,6.70
2018-03-24T12:48:53.009Z,7.20
2018-03-24T12:51:20.647Z,7.93
2018-03-24T12:53:48.250Z,8.00
2018-03-24T12:56:16.062Z,7.90
2018-03-24T12:58:43.656Z,7.97
2018-03-24T13:01:11.251Z,8.20
2018-03-24T13:03:38.865Z,8.40
2018-03-24T13:06:06.460Z,8.10
2018-03-24T13:08:34.104Z,9.37
2018-03-24T13:11:01.697Z,8.03
2018-03-24T13:13:29.499Z,8.73
2018-03-24T13:15:57.201Z,8.30
2018-03-24T13:18:24.801Z,7.90
2018-03-24T13:20:52.417Z,7.73
2018-03-24T13:23:20.042Z,9.00
2018-03-24T13:25:47.661Z,8.70
2018-03-24T13:28:15.261Z,8.70
2018-03-24T13:30:43.315Z,7.93
2018-03-24T13:33:10.952Z,7.90
2018-03-24T13:35:38.560Z,7.87
2018-03-24T13:38:06.186Z,8.30
2018-03-24T13:40:33.792Z,7.90
2018-03-24T13:43:01.401Z,8.30
2018-03-24T13:45:29.000Z,7.33
2018-03-24T13:47:56.625Z,7.63
2018-03-24T13:50:24.223Z,8.13
2018-03-24T13:52:51.842Z,6.60
2018-03-24T13:55:19.454Z,8.77
2018-03-24T13:57:47.043Z,7.30
2018-03-24T14:00:16.398Z,8.03
2018-03-24T14:02:44.046Z,8.30
2018-03-24T14:05:11.729Z,7.67
2018-03-24T14:07:39.370Z,7.00
2018-03-24T14:10:06.989Z,7.90
2018-03-24T14:12:34.624Z,7.90
2018-03-24T14:15:02.228Z,7.53
2018-03-24T14:17:29.829Z,8.80
2018-03-24T14:19:57.435Z,8.30
2018-03-24T14:22:25.029Z,8.33
2018-03-24T14:24:52.654Z,7.60
2018-03-24T14:27:20.254Z,7.87
2018-03-24T14:29:48.052Z,8.93
2018-03-24T14:32:15.641Z,8.10
2018-03-24T14:34:43.242Z,9.23
2018-03-24T14:37:10.896Z,8.50
2018-03-24T14:39:38.488Z,9.13
2018-03-24T14:42:06.115Z,8.87
2018-03-24T14:44:33.708Z,7.83
2018-03-24T14:47:01.680Z,8.47
2018-03-24T14:49:29.272Z,9.00
2018-03-24T14:51:56.872Z,7.70
2018-03-24T14:54:24.534Z,9.27
2018-03-24T14:56:52.132Z,8.30
2018-03-24T14:59:19.748Z,8.30
2018-03-24T15:01:47.342Z,9.10
2018-03-24T15:04:15.330Z,8.13
2018-03-24T15:06:42.936Z,8.40
2018-03-24T15:09:10.546Z,9.00
2018-03-24T15:11:38.169Z,8.30
2018-03-24T15:14:05.764Z,8.07
2018-03-24T15:16:33.398Z,8.33
2018-03-24T15:19:00.992Z,7.60
2018-03-24T15:21:28.739Z,8.63
2018-03-24T15:23:56.340Z,8.40
2018-03-24T15:26:23.941Z,9.00
2018-03-24T15:29:03.256Z,8.40
2018-03-24T15:31:42.523Z,9.30
2018-03-24T15:34:21.836Z,8.30
2018-03-24T15:36:49.437Z,8.27
2018-03-24T15:39:17.082Z,8.40
2018-03-24T15:41:45.232Z,9.50
2018-03-24T15:44:12.840Z,9.37
2018-03-24T15:46:40.435Z,9.57
2018-03-24T15:49:08.063Z,9.07
2018-03-24T15:51:35.732Z,9.37
2018-03-24T15:54:03.496Z,8.83
2018-03-24T15:56:31.111Z,10.30
2018-03-24T15:58:58.706Z,8.23
2018-03-24T16:01:26.335Z,9.10
2018-03-24T16:03:53.931Z,9.07
2018-03-24T16:06:21.544Z,9.40
2018-03-24T16:08:49.170Z,10.40
2018-03-24T16:11:16.768Z,9.27
2018-03-24T16:13:44.400Z,9.50
2018-03-24T16:16:12.000Z,10.03
2018-03-24T16:18:39.603Z,8.90
2018-03-24T16:21:07.219Z,9.97
2018-03-24T16:23:34.822Z,9.80
2018-03-24T16:26:02.491Z,10.87
2018-03-24T16:28:30.096Z,11.17
2018-03-24T16:30:57.698Z,11.03
2018-03-24T16:33:25.316Z,9.07
2018-03-24T16:35:52.905Z,8.67
2018-03-24T16:38:20.808Z,10.07
2018-03-24T16:40:48.411Z,10.73
2018-03-24T16:43:16.005Z,9.27
2018-03-24T16:45:43.629Z,10.03
2018-03-24T16:48:11.231Z,11.47
2018-03-24T16:50:39.013Z,10.30
2018-03-24T16:53:06.604Z,10.20
2018-03-24T16:55:34.203Z,10.77
2018-03-24T16:58:01.832Z,10.87
2018-03-24T17:00:29.436Z,10.33
2018-03-24T17:02:57.053Z,9.50
2018-03-24T17:05:24.702Z,9.87
2018-03-24T17:07:52.658Z,10.07
2018-03-24T17:10:20.268Z,10.63
2018-03-24T17:12:47.865Z,9.40
2018-03-24T17:15:15.483Z,10.87
2018-03-24T17:17:43.083Z,10.80
2018-03-24T17:20:10.710Z,10.20
2018-03-24T17:22:38.735Z,10.27
2018-03-24T17:25:06.340Z,11.40
2018-03-24T17:27:33.965Z,11.40
2018-03-24T17:30:01.584Z,10.20
2018-03-24T17:32:29.201Z,10.30
2018-03-24T17:34:56.830Z,11.10
2018-03-24T17:37:26.879Z,11.13
2018-03-24T17:39:54.480Z,10.33
2018-03-24T17:42:22.093Z,11.23
2018-03-24T17:44:49.700Z,9.60
2018-03-24T17:47:17.316Z,11.90
2018-03-24T17:49:44.936Z,10.90
2018-03-24T17:52:13.404Z,10.00
2018-03-24T17:54:41.225Z,12.40
2018-03-24T17:57:08.823Z,11.33
2018-03-24T17:59:36.444Z,11.60
2018-03-24T18:02:04.042Z,10.53
2018-03-24T18:04:32.047Z,11.10
2018-03-24T18:06:59.643Z,10.83
2018-03-24T18:09:27.248Z,10.60
2018-03-24T18:11:54.846Z,10.90
2018-03-24T18:14:23.003Z,10.97
2018-03-24T18:16:50.598Z,9.70
2018-03-24T18:19:18.188Z,10.70
2018-03-24T18:21:45.816Z,11.30
2018-03-24T18:24:13.411Z,10.37
2018-03-24T18:26:41.046Z,10.20
2018-03-24T18:29:08.645Z,11.77
2018-03-24T18:31:36.468Z,10.70
2018-03-24T18:34:04.079Z,9.90
2018-03-24T18:36:31.675Z,11.80
2018-03-24T18:38:59.293Z,9.43
2018-03-24T18:41:26.949Z,10.53
2018-03-24T18:43:54.552Z,11.30
2018-03-24T18:46:22.156Z,11.40
2018-03-24T18:48:50.079Z,11.57
2018-03-24T18:51:17.680Z,11.00
2018-03-24T18:53:45.292Z,10.87
2018-03-24T18:56:12.922Z,11.20
2018-03-24T18:58:40.525Z,11.27
2018-03-24T19:01:08.136Z,11.90
2018-03-24T19:03:35.730Z,11.50
2018-03-24T19:06:03.608Z,11.87
2018-03-24T19:08:31.209Z,10.30
2018-03-24T19:10:58.800Z,11.77
2018-03-24T19:13:26.416Z,11.43
2018-03-24T19:15:54.010Z,12.10
2018-03-24T19:18:21.621Z,12.20
2018-03-24T19:20:49.287Z,11.60
2018-03-24T19:23:16.980Z,11.77
2018-03-24T19:25:45.123Z,13.47
2018-03-24T19:28:12.989Z,11.27
2018-03-24T19:30:40.572Z,13.30
2018-03-24T19:33:08.214Z,12.70
2018-03-24T19:35:35.808Z,12.43
2018-03-24T19:38:03.405Z,11.83
2018-03-24T19:40:31.035Z,14.60
2018-03-24T19:42:58.717Z,11.77
2018-03-24T19:45:26.307Z,11.57
2018-03-24T19:47:53.911Z,13.93
2018-03-24T19:50:21.532Z,13.33
2018-03-24T19:52:49.142Z,13.50
2018-03-24T19:55:16.785Z,13.23
2018-03-24T19:57:44.380Z,13.33
2018-03-24T20:00:12.010Z,11.80
2018-03-24T20:02:39.640Z,13.27
2018-03-24T20:05:07.241Z,14.13
2018-03-24T20:07:35.508Z,12.23
2018-03-24T20:10:03.114Z,13.20
2018-03-24T20:12:30.772Z,13.10
2018-03-24T20:14:58.376Z,13.13
2018-03-24T20:17:26.824Z,13.30
2018-03-24T20:19:54.440Z,14.30
2018-03-24T20:22:22.270Z,13.67
2018-03-24T20:24:49.877Z,13.27
2018-03-24T20:27:17.475Z,13.10
2018-03-24T20:29:45.093Z,12.40
2018-03-24T20:32:12.690Z,13.20
2018-03-24T20:34:40.312Z,13.40
2018-03-24T20:37:07.904Z,14.27
2018-03-24T20:39:35.764Z,14.30
2018-03-24T20:42:03.362Z,15.20
2018-03-24T20:44:30.958Z,14.10
2018-03-24T20:46:58.575Z,14.50
2018-03-24T20:49:28.932Z,12.70
2018-03-24T20:51:56.584Z,13.50
2018-03-24T20:54:24.176Z,13.00
2018-03-24T20:56:51.798Z,14.20
2018-03-24T20:59:19.387Z,14.07
2018-03-24T21:01:47.024Z,14.40
2018-03-24T21:04:14.613Z,12.83
2018-03-24T21:06:42.213Z,13.43
2018-03-24T21:09:09.845Z,12.83
2018-03-24T21:11:37.438Z,13.10
2018-03-24T21:14:05.052Z,14.73
2018-03-24T21:16:32.649Z,13.63
2018-03-24T21:19:00.259Z,14.27
2018-03-24T21:21:27.856Z,13.33
2018-03-24T21:23:55.466Z,13.83
2018-03-24T21:26:23.075Z,15.47
2018-03-24T21:28:50.676Z,13.10
2018-03-24T21:31:18.288Z,14.87
2018-03-24T21:33:45.883Z,14.70
2018-03-24T21:36:13.504Z,14.80
2018-03-24T21:38:41.103Z,15.90
2018-03-24T21:41:08.725Z,15.93
2018-03-24T21:43:36.325Z,16.60
2018-03-24T21:46:03.952Z,13.50
2018-03-24T21:48:31.545Z,14.43
2018-03-24T21:50:59.176Z,15.00
2018-03-24T21:53:26.772Z,13.20
2018-03-24T21:55:54.390Z,15.00
2018-03-24T21:58:21.990Z,13.83
2018-03-24T22:00:49.609Z,13.20
2018-03-24T22:03:17.210Z,14.03
2018-03-24T22:05:44.825Z,15.60
2018-03-24T22:08:12.411Z,13.30
2018-03-24T22:10:40.339Z,14.40
2018-03-24T22:13:07.940Z,13.40
2018-03-24T22:15:35.535Z,14.30
2018-03-24T22:18:03.156Z,15.03
2018-03-24T22:20:30.755Z,13.37
2018-03-24T22:22:58.420Z,14.10
2018-03-24T22:25:26.022Z,14.83
2018-03-24T22:27:53.624Z,14.70
2018-03-24T22:30:21.260Z,15.30
2018-03-24T22:32:48.888Z,15.60
2018-03-24T22:35:16.516Z,13.57
2018-03-24T22:37:44.109Z,14.73
2018-03-24T22:40:12.087Z,14.87
2018-03-24T22:42:39.678Z,14.17
2018-03-24T22:45:07.273Z,15.80
2018-03-24T22:47:34.897Z,14.10
2018-03-24T22:50:02.489Z,15.03
2018-03-24T22:52:30.120Z,14.53
2018-03-24T22:54:57.716Z,16.17
2018-03-24T22:57:25.415Z,15.60
2018-03-24T22:59:53.013Z,16.13
2018-03-24T23:02:20.627Z,18.23
2018-03-24T23:04:48.219Z,19.30
2018-03-24T23:07:15.853Z,18.67
2018-03-24T23:09:43.455Z,17.00
2018-03-24T23:12:11.071Z,15.20
2018-03-24T23:14:38.700Z,23.83
2018-03-24T23:17:06.300Z,36.53
2018-03-24T23:19:33.931Z,20.80
2018-03-24T23:22:01.521Z,16.37
2018-03-24T23:24:29.179Z,15.80
2018-03-24T23:26:56.777Z,15.73
2018-03-24T23:29:24.371Z,15.57
2018-03-24T23:31:51.991Z,15.43
2018-03-24T23:34:19.611Z,16.67
2018-03-24T23:36:47.225Z,16.20
2018-03-24T23:39:14.819Z,19.40
2018-03-24T23:41:42.478Z,26.60
2018-03-24T23:44:10.070Z,24.23
2018-03-24T23:46:37.666Z,18.80
2018-03-24T23:49:05.283Z,16.17
2018-03-24T23:51:32.884Z,17.67
2018-03-24T23:54:00.506Z,19.37
2018-03-24T23:56:28.106Z,19.13
2018-03-24T23:58:55.948Z,23.40
